Overview Statistics Trail Chart Weather Telemetry Raw packets
 

This is the latest recevied weather packets stored in our database for station/object EA1GGY-1. If no packets are shown the sender has not sent any weather packets the latest 10 day(s).

<< 1 2 3 4 5 >>
Time Temp. Humidity Pressure Rain* Wind** Luminosity Snow
1788595379 21.11° C 63% 1020.4 hPa - - - -
1788594778 20° C 64% 1020.6 hPa - - - -
1788594177 20° C 64% 1020.5 hPa - - - -
1788593576 19.44° C 66% 1020.4 hPa - - - -
1788592976 20° C 63% 1020.4 hPa - - - -
1788592375 19.44° C 64% 1020.4 hPa - - - -
1788591774 19.44° C 63% 1020.5 hPa - - - -
1788591173 18.89° C 65% 1020.5 hPa - - - -
1788590572 19.44° C 64% 1020.5 hPa - - - -
1788589972 18.89° C 68% 1020.5 hPa - - - -
1788589371 18.89° C 68% 1020.5 hPa - - - -
1788588770 18.89° C 66% 1020.5 hPa - - - -
1788588169 18.89° C 65% 1020.7 hPa - - - -
1788587569 18.89° C 64% 1020.7 hPa - - - -
1788586968 20° C 61% 1020.8 hPa - - - -
1788586367 19.44° C 61% 1020.7 hPa - - - -
1788585766 19.44° C 61% 1020.8 hPa - - - -
1788585164 20° C 59% 1020.7 hPa - - - -
1788584564 19.44° C 60% 1020.7 hPa - - - -
1788583963 19.44° C 61% 1020.7 hPa - - - -
1788583362 18.89° C 61% 1020.8 hPa - - - -
1788582761 20° C 58% 1021 hPa - - - -
1788582160 20° C 58% 1020.9 hPa - - - -
1788581559 19.44° C 59% 1021 hPa - - - -
1788580959 19.44° C 60% 1020.9 hPa - - - -

* Rain since midnight (hover to see other rain measurements)
** Current wind speed in m/s (hover to see current wind gust speed)